createdAt,value
2019-04-26T00:15:54.524Z,26.90
2019-04-26T00:45:57.141Z,23.65
2019-04-26T01:15:59.768Z,30.97
2019-04-26T01:46:02.404Z,24.98
2019-04-26T02:16:05.036Z,28.20
2019-04-26T02:46:07.640Z,23.27
2019-04-26T03:16:11.404Z,31.20
2019-04-26T03:46:20.024Z,18.07
2019-04-26T04:16:34.648Z,26.65
2019-04-26T04:46:50.349Z,26.52
2019-04-26T05:16:56.802Z,28.98
2019-04-26T05:47:17.414Z,26.30
2019-04-26T06:17:34.888Z,28.57
2019-04-26T06:47:40.740Z,19.12
2019-04-26T07:18:10.732Z,20.08
2019-04-26T07:48:35.901Z,20.10
2019-04-26T08:18:41.169Z,15.78
2019-04-26T08:48:43.750Z,16.27
2019-04-26T09:18:52.673Z,17.73
2019-04-26T09:48:50.701Z,15.60
2019-04-26T10:18:54.467Z,15.48
2019-04-26T10:49:08.276Z,13.53
2019-04-26T11:19:02.241Z,15.72
2019-04-26T11:49:07.145Z,10.72
2019-04-26T12:19:09.088Z,18.02
2019-04-26T12:49:11.703Z,11.03
2019-04-26T13:19:16.003Z,8.88
2019-04-26T13:49:19.368Z,10.10
2019-04-26T14:19:22.006Z,10.68
2019-04-26T14:49:26.157Z,10.18
2019-04-26T15:19:29.005Z,6.53
2019-04-26T15:49:34.729Z,5.87
2019-04-26T16:19:36.058Z,10.13
2019-04-26T16:49:41.789Z,15.45
2019-04-26T17:19:43.380Z,15.08
2019-04-26T17:49:46.004Z,18.92
2019-04-26T18:19:48.629Z,18.95
2019-04-26T18:49:52.113Z,17.52
2019-04-26T19:19:55.565Z,20.60
2019-04-26T19:49:58.208Z,19.62
2019-04-26T20:20:02.047Z,24.37
2019-04-26T20:50:06.385Z,12.60
2019-04-26T21:20:09.012Z,21.87
2019-04-26T21:50:13.544Z,10.58
2019-04-26T22:20:16.497Z,8.38
2019-04-26T22:50:21.007Z,14.28
2019-04-26T23:20:24.990Z,15.70
2019-04-26T23:50:29.469Z,12.50
